createdAt,value
2022-10-13T00:01:01.242Z,99812.72
2022-10-13T00:03:28.385Z,99814.63
2022-10-13T00:05:55.391Z,99820.28
2022-10-13T00:08:22.437Z,99817.78
2022-10-13T00:10:51.277Z,99818.00
2022-10-13T00:13:24.258Z,99822.06
2022-10-13T00:15:51.344Z,99821.50
2022-10-13T00:18:18.732Z,99820.69
2022-10-13T00:20:49.005Z,99828.47
2022-10-13T00:23:17.367Z,99830.63
2022-10-13T00:25:50.214Z,99822.97
2022-10-13T00:28:20.847Z,99819.88
2022-10-13T00:30:48.030Z,99817.66
2022-10-13T00:33:15.202Z,99821.88
2022-10-13T00:35:44.836Z,99821.97
2022-10-13T00:38:17.094Z,99825.25
2022-10-13T00:40:49.776Z,99820.69
2022-10-13T00:43:21.919Z,99820.47
2022-10-13T00:45:52.279Z,99817.84
2022-10-13T00:48:23.983Z,99830.53
2022-10-13T00:50:52.172Z,99830.34
2022-10-13T00:53:23.073Z,99831.44
2022-10-13T00:55:52.398Z,99837.38
2022-10-13T00:58:23.963Z,99839.53
2022-10-13T01:00:53.156Z,99838.81
2022-10-13T01:03:21.399Z,99841.44
2022-10-13T01:05:50.305Z,99834.41
2022-10-13T01:08:19.747Z,99836.75
2022-10-13T01:11:07.327Z,99830.84
2022-10-13T01:14:03.708Z,99839.03
2022-10-13T01:17:00.501Z,99834.19
2022-10-13T01:19:51.816Z,99842.75
2022-10-13T01:23:00.729Z,99839.47
2022-10-13T01:25:48.956Z,99850.41
2022-10-13T01:28:25.026Z,99837.53
2022-10-13T01:30:59.193Z,99836.13
2022-10-13T01:34:04.997Z,99845.56
2022-10-13T01:36:48.575Z,99844.19
2022-10-13T01:39:28.304Z,99843.41
2022-10-13T01:42:01.694Z,99842.31
2022-10-13T01:44:37.120Z,99843.59
2022-10-13T01:47:06.307Z,99844.78
2022-10-13T01:49:36.127Z,99849.25
2022-10-13T01:52:08.491Z,99842.09
2022-10-13T01:54:35.756Z,99848.47
2022-10-13T01:57:03.009Z,99841.56
2022-10-13T01:59:34.046Z,99842.59
2022-10-13T02:02:17.768Z,99843.41
2022-10-13T02:05:09.322Z,99850.16
2022-10-13T02:07:48.629Z,99850.84
2022-10-13T02:10:40.416Z,99848.75
2022-10-13T02:13:09.496Z,99848.25
2022-10-13T02:15:54.550Z,99852.91
2022-10-13T02:18:29.309Z,99855.00
2022-10-13T02:20:57.203Z,99859.06
2022-10-13T02:23:24.724Z,99853.50
2022-10-13T02:25:51.836Z,99854.34
2022-10-13T02:28:19.698Z,99853.84
2022-10-13T02:30:47.230Z,99857.97
2022-10-13T02:33:15.795Z,99861.53
2022-10-13T02:35:43.661Z,99863.78
2022-10-13T02:38:11.226Z,99862.81
2022-10-13T02:40:38.705Z,99860.94
2022-10-13T02:43:05.947Z,99861.50
2022-10-13T02:45:32.970Z,99864.75
2022-10-13T02:48:00.136Z,99861.28
2022-10-13T02:50:27.268Z,99861.00
2022-10-13T02:52:56.887Z,99863.63
2022-10-13T02:55:24.021Z,99862.97
2022-10-13T02:57:57.004Z,99871.47
2022-10-13T03:00:24.202Z,99862.25
2022-10-13T03:02:51.320Z,99871.84
2022-10-13T03:05:18.608Z,99868.00
2022-10-13T03:07:45.985Z,99874.38
2022-10-13T03:10:13.380Z,99880.50
2022-10-13T03:12:40.395Z,99869.66
2022-10-13T03:15:08.228Z,99874.66
2022-10-13T03:17:35.378Z,99875.41
2022-10-13T03:20:02.398Z,99876.41
2022-10-13T03:22:32.462Z,99876.09
2022-10-13T03:24:59.781Z,99876.09
2022-10-13T03:27:26.967Z,99878.50
2022-10-13T03:29:54.081Z,99882.50
2022-10-13T03:32:21.435Z,99880.03
2022-10-13T03:34:48.790Z,99878.44
2022-10-13T03:37:16.098Z,99884.59
2022-10-13T03:39:43.654Z,99880.81
2022-10-13T03:42:11.221Z,99880.50
2022-10-13T03:44:39.492Z,99888.06
2022-10-13T03:47:06.488Z,99884.09
2022-10-13T03:49:33.517Z,99893.53
2022-10-13T03:52:00.698Z,99888.19
2022-10-13T03:54:27.784Z,99885.75
2022-10-13T03:56:54.867Z,99896.00
2022-10-13T03:59:22.012Z,99893.53
2022-10-13T04:01:49.187Z,99895.44
2022-10-13T04:04:16.571Z,99904.50
2022-10-13T04:06:43.900Z,99897.22
2022-10-13T04:09:11.107Z,99902.00
2022-10-13T04:11:38.261Z,99904.94
2022-10-13T04:14:05.278Z,99907.03
2022-10-13T04:16:32.499Z,99910.81
2022-10-13T04:19:03.180Z,99908.91
2022-10-13T04:21:33.440Z,99909.56
2022-10-13T04:24:01.917Z,99913.06
2022-10-13T04:26:31.627Z,99916.50
2022-10-13T04:29:02.781Z,99911.97
2022-10-13T04:31:31.132Z,99913.50
2022-10-13T04:33:58.698Z,99913.00
2022-10-13T04:36:26.932Z,99917.09
2022-10-13T04:38:54.834Z,99909.47
2022-10-13T04:41:22.382Z,99910.56
2022-10-13T04:43:50.423Z,99911.00
2022-10-13T04:46:22.793Z,99911.94
2022-10-13T04:48:52.133Z,99920.78
2022-10-13T04:51:25.013Z,99926.56
2022-10-13T04:53:59.826Z,99924.09
2022-10-13T04:56:27.870Z,99924.09
2022-10-13T04:58:55.122Z,99918.41
2022-10-13T05:01:24.511Z,99922.63
2022-10-13T05:03:56.922Z,99922.53
2022-10-13T05:06:27.689Z,99925.25
2022-10-13T05:08:58.186Z,99929.34
2022-10-13T05:11:26.922Z,99931.84
2022-10-13T05:13:55.134Z,99929.59
2022-10-13T05:16:23.421Z,99939.47
2022-10-13T05:18:53.043Z,99937.69
2022-10-13T05:21:22.946Z,99937.16
2022-10-13T05:23:54.121Z,99933.38
2022-10-13T05:26:22.918Z,99940.84
2022-10-13T05:28:50.325Z,99943.31
2022-10-13T05:31:20.460Z,99929.34
2022-10-13T05:33:48.827Z,99943.72
2022-10-13T05:36:30.311Z,99943.97
2022-10-13T05:38:59.365Z,99947.78
2022-10-13T05:41:28.732Z,99945.09
2022-10-13T05:44:02.274Z,99946.91
2022-10-13T05:46:29.426Z,99950.44
2022-10-13T05:48:56.591Z,99949.19
2022-10-13T05:51:33.908Z,99948.81
2022-10-13T05:54:30.963Z,99941.59
2022-10-13T05:57:06.702Z,99945.06
2022-10-13T05:59:37.630Z,99952.38
2022-10-13T06:02:08.553Z,99948.28
2022-10-13T06:04:40.726Z,99952.59
2022-10-13T06:07:10.039Z,99959.59
2022-10-13T06:09:40.200Z,99963.38
2022-10-13T06:12:08.487Z,99956.91
2022-10-13T06:14:36.014Z,99957.72
2022-10-13T06:17:06.399Z,99968.19
2022-10-13T06:19:33.473Z,99961.88
2022-10-13T06:22:07.956Z,99966.63
2022-10-13T06:24:35.079Z,99961.97
2022-10-13T06:27:04.309Z,99965.31
2022-10-13T06:29:33.215Z,99967.81
2022-10-13T06:32:00.436Z,99968.38
2022-10-13T06:34:27.656Z,99974.13
2022-10-13T06:36:54.708Z,99967.78
2022-10-13T06:39:21.798Z,99967.00
2022-10-13T06:41:50.628Z,99971.75
2022-10-13T06:44:17.818Z,99965.06
2022-10-13T06:46:44.898Z,99969.50
2022-10-13T06:49:11.970Z,99968.13
2022-10-13T06:51:39.147Z,99963.34
2022-10-13T06:54:06.305Z,99968.00
2022-10-13T06:56:33.685Z,99960.38
2022-10-13T06:59:05.872Z,99961.69
2022-10-13T07:01:39.196Z,99960.41
2022-10-13T07:04:13.057Z,99956.09
2022-10-13T07:06:40.219Z,99954.50
2022-10-13T07:09:08.527Z,99951.16
2022-10-13T07:11:35.967Z,99956.75
2022-10-13T07:14:03.484Z,99967.56
2022-10-13T07:16:31.112Z,99979.97
2022-10-13T07:18:58.266Z,99973.91
2022-10-13T07:21:25.313Z,99984.25
2022-10-13T07:23:52.426Z,99983.63
2022-10-13T07:26:19.960Z,99981.53
2022-10-13T07:28:47.224Z,99987.44
2022-10-13T07:31:17.954Z,99982.63
2022-10-13T07:33:46.565Z,99986.34
2022-10-13T07:36:18.171Z,99984.81
2022-10-13T07:38:46.318Z,99980.06
2022-10-13T07:41:14.188Z,99982.16
2022-10-13T07:43:41.819Z,99983.59
2022-10-13T07:46:09.164Z,99988.75
2022-10-13T07:48:36.690Z,99998.44
2022-10-13T07:51:09.099Z,99994.94
2022-10-13T07:53:36.429Z,100008.44
2022-10-13T07:56:06.379Z,100011.63
2022-10-13T07:58:36.764Z,100012.72
2022-10-13T08:01:05.232Z,100012.97
2022-10-13T08:03:41.094Z,100016.19
2022-10-13T08:06:14.900Z,100013.72
2022-10-13T08:08:41.923Z,100016.91
2022-10-13T08:11:16.474Z,100019.00
2022-10-13T08:13:51.159Z,100010.91
2022-10-13T08:16:21.463Z,100018.38
2022-10-13T08:18:49.032Z,100016.81
2022-10-13T08:24:12.022Z,100024.25
2022-10-13T08:26:39.244Z,100016.84
2022-10-13T08:29:21.510Z,100017.94
2022-10-13T08:34:23.896Z,100021.19
2022-10-13T08:36:54.606Z,100006.53
2022-10-13T08:39:23.568Z,100005.25
2022-10-13T08:41:51.144Z,100014.84
2022-10-13T08:47:47.145Z,100012.13
2022-10-13T08:50:19.706Z,100009.44
2022-10-13T08:52:52.796Z,100019.13
2022-10-13T08:55:41.576Z,100015.47
2022-10-13T08:58:27.192Z,100014.84
2022-10-13T09:01:09.365Z,100011.78
2022-10-13T09:03:54.684Z,100011.78
2022-10-13T09:06:28.577Z,100016.59
2022-10-13T09:09:01.843Z,100010.19
2022-10-13T09:11:35.355Z,100018.50
2022-10-13T09:14:06.169Z,100019.13
2022-10-13T09:16:41.917Z,100014.19
2022-10-13T09:19:30.213Z,100016.25
2022-10-13T09:22:14.321Z,100013.56
2022-10-13T09:24:41.455Z,100008.63
2022-10-13T09:27:26.656Z,100009.75
2022-10-13T09:29:53.814Z,100011.66
2022-10-13T09:32:25.705Z,100012.94
2022-10-13T09:34:55.651Z,100010.88
2022-10-13T09:37:25.582Z,100012.91
2022-10-13T09:40:20.278Z,100007.50
2022-10-13T09:42:53.507Z,100010.97
2022-10-13T09:45:24.597Z,100015.25
2022-10-13T09:47:56.519Z,100013.47
2022-10-13T09:50:28.479Z,100005.16
2022-10-13T09:53:21.394Z,100007.69
2022-10-13T09:55:49.762Z,100000.84
2022-10-13T09:58:28.752Z,100000.94
2022-10-13T10:00:57.885Z,99997.13
2022-10-13T10:03:34.757Z,100002.78
2022-10-13T10:06:05.936Z,100003.31
2022-10-13T10:09:03.114Z,99996.16
2022-10-13T10:11:37.755Z,99997.66
2022-10-13T10:14:25.435Z,99998.97
2022-10-13T10:17:18.635Z,100003.16
2022-10-13T10:20:10.509Z,100010.81
2022-10-13T10:22:51.392Z,100002.03
2022-10-13T10:25:39.983Z,100005.34
2022-10-13T10:28:49.138Z,100003.22
2022-10-13T10:31:57.445Z,100015.22
2022-10-13T10:34:46.043Z,100014.38
2022-10-13T10:37:25.494Z,100008.53
2022-10-13T10:40:11.919Z,100009.84
2022-10-13T10:43:20.671Z,100008.47
2022-10-13T10:45:48.827Z,100015.28
2022-10-13T10:48:25.008Z,100014.50
2022-10-13T10:50:53.466Z,100016.59
2022-10-13T10:53:27.984Z,100014.50
2022-10-13T10:56:20.467Z,100019.09
2022-10-13T10:58:53.585Z,100011.97
2022-10-13T11:01:42.872Z,100015.59
2022-10-13T11:04:31.694Z,100018.47
2022-10-13T11:06:59.224Z,100016.41
2022-10-13T11:09:41.479Z,100011.47
2022-10-13T11:12:53.075Z,100013.84
2022-10-13T11:15:28.889Z,100015.09
2022-10-13T11:17:55.968Z,100023.97
2022-10-13T11:20:25.179Z,100013.94
2022-10-13T11:23:04.057Z,100014.91
2022-10-13T11:25:41.195Z,100014.25
2022-10-13T11:28:23.766Z,100003.69
2022-10-13T11:31:18.686Z,100012.78
2022-10-13T11:33:47.941Z,100009.97
2022-10-13T11:36:51.700Z,99997.28
2022-10-13T11:42:31.906Z,99990.75
2022-10-13T11:45:04.854Z,99994.91
2022-10-13T11:47:59.577Z,99990.78
2022-10-13T11:50:35.334Z,99985.22
2022-10-13T11:53:18.836Z,99990.47
2022-10-13T11:55:51.776Z,99984.72
2022-10-13T11:58:24.820Z,99989.97
2022-10-13T12:01:00.153Z,99988.41
2022-10-13T12:03:39.315Z,99987.13
2022-10-13T12:06:33.883Z,99993.16
2022-10-13T12:09:03.957Z,99986.63
2022-10-13T12:11:34.360Z,99985.03
2022-10-13T12:14:02.392Z,99991.72
2022-10-13T12:16:30.201Z,99985.22
2022-10-13T12:19:26.141Z,99984.13
2022-10-13T12:21:55.963Z,99983.47
2022-10-13T12:24:25.655Z,99989.03
2022-10-13T12:26:53.366Z,99988.72
2022-10-13T12:29:25.027Z,99987.28
2022-10-13T12:31:53.094Z,99981.69
2022-10-13T12:34:29.564Z,99979.19
2022-10-13T12:37:14.959Z,99978.22
2022-10-13T12:39:42.144Z,99994.63
2022-10-13T12:42:14.184Z,99986.19
2022-10-13T12:44:41.738Z,99992.38
2022-10-13T12:47:48.990Z,99993.78
2022-10-13T12:50:28.276Z,99990.63
2022-10-13T12:53:15.831Z,99996.63
2022-10-13T12:55:48.037Z,99997.16
2022-10-13T12:58:21.891Z,99998.47
2022-10-13T13:01:09.316Z,100006.31
2022-10-13T13:03:38.915Z,99997.19
2022-10-13T13:06:18.220Z,100007.13
2022-10-13T13:08:46.878Z,100014.06
2022-10-13T13:11:23.178Z,100012.41
2022-10-13T13:14:34.840Z,100016.72
2022-10-13T13:17:45.409Z,100015.66
2022-10-13T13:20:32.462Z,100015.22
2022-10-13T13:23:00.836Z,100012.41
2022-10-13T13:25:28.144Z,100009.81
2022-10-13T13:27:55.285Z,100009.34
2022-10-13T13:30:23.807Z,100015.84
2022-10-13T13:32:51.231Z,100020.28
2022-10-13T13:35:18.967Z,100020.94
2022-10-13T13:37:49.887Z,100026.63
2022-10-13T13:40:19.875Z,100017.91
2022-10-13T13:42:47.075Z,100022.84
2022-10-13T13:45:20.728Z,100021.16
2022-10-13T13:47:48.521Z,100022.25
2022-10-13T13:50:22.841Z,100025.41
2022-10-13T13:53:00.322Z,100023.94
2022-10-13T13:55:29.827Z,100024.66
2022-10-13T13:57:58.065Z,100030.53
2022-10-13T14:00:25.592Z,100030.59
2022-10-13T14:02:57.453Z,100042.38
2022-10-13T14:05:25.141Z,100035.75
2022-10-13T14:07:57.966Z,100031.97
2022-10-13T14:10:27.088Z,100031.19
2022-10-13T14:12:54.546Z,100030.56
2022-10-13T14:15:28.821Z,100041.56
2022-10-13T14:17:57.295Z,100029.38
2022-10-13T14:20:24.674Z,100033.06
2022-10-13T14:22:51.808Z,100025.59
2022-10-13T14:25:19.970Z,100040.72
2022-10-13T14:27:47.169Z,100031.31
2022-10-13T14:30:14.783Z,100044.56
2022-10-13T14:32:42.050Z,100046.06
2022-10-13T14:35:09.498Z,100039.66
2022-10-13T14:37:36.645Z,100036.25
2022-10-13T14:40:04.193Z,100036.69
2022-10-13T14:42:32.982Z,100035.31
2022-10-13T14:45:00.327Z,100038.22
2022-10-13T14:47:28.329Z,100034.50
2022-10-13T14:49:55.589Z,100046.06
2022-10-13T14:52:22.911Z,100044.47
2022-10-13T14:54:50.150Z,100054.22
2022-10-13T14:57:17.639Z,100049.50
2022-10-13T14:59:46.339Z,100046.38
2022-10-13T15:02:14.348Z,100051.72
2022-10-13T15:04:52.204Z,100064.78
2022-10-13T15:07:20.021Z,100062.97
2022-10-13T15:10:00.538Z,100064.13
2022-10-13T15:12:35.106Z,100058.53
2022-10-13T15:15:02.610Z,100056.69
2022-10-13T15:17:31.374Z,100058.88
2022-10-13T15:19:58.601Z,100055.78
2022-10-13T15:22:26.339Z,100060.91
2022-10-13T15:24:53.515Z,100069.22
2022-10-13T15:27:20.739Z,100066.28
2022-10-13T15:29:47.773Z,100063.00
2022-10-13T15:32:18.856Z,100065.09
2022-10-13T15:34:55.282Z,100060.03
2022-10-13T15:37:22.468Z,100065.47
2022-10-13T15:39:54.506Z,100074.72
2022-10-13T15:42:24.125Z,100070.28
2022-10-13T15:45:08.680Z,100071.44
2022-10-13T15:47:38.946Z,100063.28
2022-10-13T15:50:08.640Z,100070.66
2022-10-13T15:52:41.978Z,100065.91
2022-10-13T15:55:15.083Z,100064.59
2022-10-13T15:57:44.174Z,100076.00
2022-10-13T16:00:13.511Z,100067.47
2022-10-13T16:02:42.929Z,100069.78
2022-10-13T16:05:12.572Z,100070.69
2022-10-13T16:07:40.863Z,100074.97
2022-10-13T16:10:10.419Z,100076.88
2022-10-13T16:12:37.566Z,100076.06
2022-10-13T16:15:07.060Z,100070.69
2022-10-13T16:17:34.985Z,100071.56
2022-10-13T16:20:02.494Z,100059.84
2022-10-13T16:22:31.286Z,100064.44
2022-10-13T16:24:58.883Z,100064.16
2022-10-13T16:27:26.754Z,100065.50
2022-10-13T16:29:53.803Z,100062.31
2022-10-13T16:32:21.378Z,100062.59
2022-10-13T16:34:49.204Z,100065.81
2022-10-13T16:37:19.828Z,100063.91
2022-10-13T16:39:51.513Z,100068.97
2022-10-13T16:42:19.359Z,100067.31
2022-10-13T16:44:46.478Z,100068.91
2022-10-13T16:47:17.442Z,100070.50
2022-10-13T16:49:46.281Z,100075.88
2022-10-13T16:52:15.360Z,100071.88
2022-10-13T16:54:44.242Z,100076.72
2022-10-13T16:57:11.312Z,100080.50
2022-10-13T16:59:38.421Z,100083.97
2022-10-13T17:02:05.593Z,100075.34
2022-10-13T17:04:32.802Z,100083.66
2022-10-13T17:07:00.178Z,100081.72
2022-10-13T17:09:27.413Z,100077.66
2022-10-13T17:11:55.173Z,100088.41
2022-10-13T17:14:22.227Z,100079.56
2022-10-13T17:16:52.093Z,100075.28
2022-10-13T17:19:21.273Z,100075.34
2022-10-13T17:21:48.368Z,100079.63
2022-10-13T17:24:17.150Z,100077.31
2022-10-13T17:26:44.302Z,100074.66
2022-10-13T17:29:11.508Z,100075.75
2022-10-13T17:31:38.551Z,100078.50
2022-10-13T17:34:06.471Z,100078.22
2022-10-13T17:36:34.567Z,100080.69
2022-10-13T17:39:09.951Z,100079.63
2022-10-13T17:41:41.655Z,100072.41
2022-10-13T17:44:10.089Z,100074.56
2022-10-13T17:46:39.179Z,100071.91
2022-10-13T17:49:09.481Z,100080.50
2022-10-13T17:51:37.136Z,100082.41
2022-10-13T17:54:05.502Z,100081.88
2022-10-13T17:56:34.163Z,100076.00
2022-10-13T17:59:02.428Z,100072.78
2022-10-13T18:01:34.526Z,100076.81
2022-10-13T18:04:07.513Z,100083.28
2022-10-13T18:06:40.331Z,100072.03
2022-10-13T18:09:14.471Z,100078.72
2022-10-13T18:11:47.105Z,100079.50
2022-10-13T18:14:19.163Z,100080.34
2022-10-13T18:16:50.414Z,100073.59
2022-10-13T18:19:17.587Z,100079.72
2022-10-13T18:21:44.615Z,100071.38
2022-10-13T18:24:13.472Z,100074.56
2022-10-13T18:26:41.779Z,100069.44
2022-10-13T18:29:11.062Z,100073.38
2022-10-13T18:31:40.685Z,100078.94
2022-10-13T18:34:14.193Z,100081.53
2022-10-13T18:36:44.572Z,100080.91
2022-10-13T18:39:14.631Z,100084.09
2022-10-13T18:41:46.190Z,100091.56
2022-10-13T18:44:13.885Z,100081.31
2022-10-13T18:46:42.679Z,100092.00
2022-10-13T18:49:14.003Z,100094.13
2022-10-13T18:51:43.965Z,100092.47
2022-10-13T18:54:11.916Z,100087.06
2022-10-13T18:56:39.207Z,100088.91
2022-10-13T18:59:08.107Z,100095.28
2022-10-13T19:01:36.976Z,100097.69
2022-10-13T19:04:05.559Z,100100.38
2022-10-13T19:06:32.875Z,100092.28
2022-10-13T19:09:02.171Z,100099.75
2022-10-13T19:11:30.405Z,100100.00
2022-10-13T19:13:58.572Z,100097.03
2022-10-13T19:16:28.954Z,100091.06
2022-10-13T19:18:56.334Z,100091.66
2022-10-13T19:21:23.923Z,100096.75
2022-10-13T19:23:52.411Z,100095.34
2022-10-13T19:26:24.524Z,100092.38
2022-10-13T19:28:57.015Z,100086.19
2022-10-13T19:31:26.187Z,100095.81
2022-10-13T19:33:53.753Z,100084.00
2022-10-13T19:36:33.380Z,100097.72
2022-10-13T19:39:05.462Z,100092.63
2022-10-13T19:41:33.527Z,100098.00
2022-10-13T19:44:01.225Z,100096.91
2022-10-13T19:46:40.403Z,100096.41
2022-10-13T19:49:08.196Z,100095.59
2022-10-13T19:51:37.119Z,100091.06
2022-10-13T19:54:05.148Z,100093.53
2022-10-13T19:56:33.068Z,100094.34
2022-10-13T19:59:02.010Z,100089.47
2022-10-13T20:01:30.110Z,100087.09
2022-10-13T20:03:58.325Z,100094.34
2022-10-13T20:06:25.452Z,100092.75
2022-10-13T20:08:52.694Z,100086.28
2022-10-13T20:11:23.924Z,100094.06
2022-10-13T20:13:52.153Z,100091.13
2022-10-13T20:16:22.937Z,100094.84
2022-10-13T20:18:56.840Z,100095.25
2022-10-13T20:21:25.434Z,100096.31
2022-10-13T20:23:53.371Z,100094.66
2022-10-13T20:26:21.166Z,100103.75
2022-10-13T20:28:50.259Z,100096.50
2022-10-13T20:31:19.443Z,100095.44
2022-10-13T20:33:49.834Z,100105.09
2022-10-13T20:36:19.120Z,100103.06
2022-10-13T20:38:47.566Z,100098.44
2022-10-13T20:41:17.144Z,100103.53
2022-10-13T20:43:45.048Z,100102.72
2022-10-13T20:46:13.330Z,100110.78
2022-10-13T20:49:08.734Z,100110.81
2022-10-13T20:51:28.497Z,100110.81
2022-10-13T20:53:55.706Z,100111.06
2022-10-13T20:56:24.894Z,100110.28
2022-10-13T20:58:52.497Z,100126.88
2022-10-13T21:01:21.093Z,100115.63
2022-10-13T21:03:52.443Z,100114.66
2022-10-13T21:06:20.107Z,100110.03
2022-10-13T21:08:47.809Z,100114.56
2022-10-13T21:11:16.762Z,100116.16
2022-10-13T21:13:45.193Z,100116.75
2022-10-13T21:16:16.230Z,100122.66
2022-10-13T21:18:49.140Z,100126.69
2022-10-13T21:21:18.913Z,100117.59
2022-10-13T21:23:57.204Z,100123.50
2022-10-13T21:26:26.584Z,100124.03
2022-10-13T21:28:53.854Z,100117.34
2022-10-13T21:31:22.593Z,100119.22
2022-10-13T21:33:50.541Z,100122.97
2022-10-13T21:36:22.171Z,100123.53
2022-10-13T21:38:53.152Z,100126.19
2022-10-13T21:41:21.222Z,100120.81
2022-10-13T21:43:49.102Z,100121.13
2022-10-13T21:46:17.651Z,100126.41
2022-10-13T21:48:46.421Z,100126.94
2022-10-13T21:51:24.049Z,100130.78
2022-10-13T21:53:53.453Z,100128.31
2022-10-13T21:56:21.545Z,100125.03
2022-10-13T21:58:49.347Z,100124.53
2022-10-13T22:01:17.735Z,100132.84
2022-10-13T22:03:47.221Z,100133.38
2022-10-13T22:06:19.484Z,100131.47
2022-10-13T22:08:51.447Z,100139.00
2022-10-13T22:11:23.635Z,100140.88
2022-10-13T22:13:51.084Z,100139.31
2022-10-13T22:16:21.927Z,100134.25
2022-10-13T22:18:52.977Z,100131.84
2022-10-13T22:21:26.696Z,100134.75
2022-10-13T22:23:57.572Z,100138.75
2022-10-13T22:26:25.934Z,100132.03
2022-10-13T22:28:53.450Z,100134.75
2022-10-13T22:31:20.883Z,100132.69
2022-10-13T22:33:47.887Z,100137.22
2022-10-13T22:36:18.143Z,100134.09
2022-10-13T22:38:47.107Z,100136.16
2022-10-13T22:41:15.358Z,100136.16
2022-10-13T22:43:46.832Z,100138.03
2022-10-13T22:46:15.635Z,100140.25
2022-10-13T22:48:43.738Z,100143.69
2022-10-13T22:51:13.614Z,100146.91
2022-10-13T22:53:40.726Z,100139.66
2022-10-13T22:56:14.102Z,100140.16
2022-10-13T22:58:41.706Z,100144.44
2022-10-13T23:01:14.555Z,100142.03
2022-10-13T23:03:42.318Z,100142.84
2022-10-13T23:06:14.203Z,100150.34
2022-10-13T23:08:41.694Z,100145.78
2022-10-13T23:11:08.957Z,100153.84
2022-10-13T23:13:36.767Z,100142.09
2022-10-13T23:16:13.010Z,100146.91
2022-10-13T23:18:43.562Z,100151.97
2022-10-13T23:21:26.258Z,100139.13
2022-10-13T23:24:01.780Z,100144.44
2022-10-13T23:26:29.836Z,100150.38
2022-10-13T23:28:58.046Z,100145.88
2022-10-13T23:31:26.907Z,100144.28
2022-10-13T23:33:54.346Z,100148.78
2022-10-13T23:36:24.423Z,100157.34
2022-10-13T23:38:59.678Z,100149.06
2022-10-13T23:41:26.984Z,100152.03
2022-10-13T23:43:54.093Z,100142.09
2022-10-13T23:46:21.498Z,100148.28
2022-10-13T23:48:48.560Z,100149.09
2022-10-13T23:51:20.949Z,100145.09
2022-10-13T23:53:48.233Z,100141.13
2022-10-13T23:56:15.922Z,100140.13
2022-10-13T23:58:44.213Z,100148.69
